LIRG

Guidonia Airport

Guidonia, Italy
TAF LIRG 230800Z 2309/2318 VRB05KT CAVOK TEMPO 2312/2315 9999 FEW030CB
Issued Valid From Valid To
Apr-23 @ 08:00 UTC
(an hour ago)
Apr-23 @ 09:00 UTC
(26 minutes ago)
Apr-23 @ 18:00 UTC
(in 9 hours)
Apr-23 @ 09:00 to Apr-23 @ 18:00
TAF LIRG 230800Z 2309/2318 VRB05KT CAVOK
Wind Visibility Clouds Conditions
Variable at 5 knots 10,000+ meters
  • No significant clouds
Temporary Apr-23 @ 12:00 to Apr-23 @ 15:00
TEMPO 2312/2315 9999 FEW030CB
Visibility Clouds
10,000+ meters
  • Few at 3,000' AGL
TAF LIRG 230800Z 2309/2318 VRB05KT CAVOK TEMPO 2312/2315 9999 FEW030CB
Issued Apr-23 @ 08:00 UTC
(an hour ago)
Valid From Apr-23 @ 09:00 UTC
(26 minutes ago)
Valid To Apr-23 @ 18:00 UTC
(in 9 hours)
Apr-23 @ 09:00 - Apr-23 @ 18:00
Wind Visibility
Variable at 5 knots 10,000+ meters
Clouds
  • No significant clouds
Conditions
Temporary Apr-23 @ 12:00 - Apr-23 @ 15:00
Clouds
  • Few at 3,000' AGL